sensor_id;sensor_type;location;lat;lon;timestamp;P1;durP1;ratioP1;P2;durP2;ratioP2
16189;SDS011;41754;51.498;7.540;2023-02-28T00:01:41;5.20;;;3.03;;
16189;SDS011;41754;51.498;7.540;2023-02-28T00:04:08;5.33;;;2.77;;
16189;SDS011;41754;51.498;7.540;2023-02-28T00:06:36;5.13;;;2.70;;
16189;SDS011;41754;51.498;7.540;2023-02-28T00:09:04;5.07;;;2.60;;
16189;SDS011;41754;51.498;7.540;2023-02-28T00:11:32;4.60;;;2.60;;
16189;SDS011;41754;51.498;7.540;2023-02-28T00:14:01;5.77;;;2.83;;
16189;SDS011;41754;51.498;7.540;2023-02-28T00:16:29;4.53;;;2.40;;
16189;SDS011;41754;51.498;7.540;2023-02-28T00:18:57;4.77;;;3.23;;
16189;SDS011;41754;51.498;7.540;2023-02-28T00:21:25;5.03;;;2.87;;
16189;SDS011;41754;51.498;7.540;2023-02-28T00:23:53;4.00;;;2.80;;
16189;SDS011;41754;51.498;7.540;2023-02-28T00:26:21;3.50;;;2.60;;
16189;SDS011;41754;51.498;7.540;2023-02-28T00:28:49;6.20;;;3.37;;
16189;SDS011;41754;51.498;7.540;2023-02-28T00:31:20;6.53;;;3.10;;
16189;SDS011;41754;51.498;7.540;2023-02-28T00:33:48;3.67;;;2.83;;
16189;SDS011;41754;51.498;7.540;2023-02-28T00:36:17;5.33;;;2.90;;
16189;SDS011;41754;51.498;7.540;2023-02-28T00:38:45;5.93;;;3.20;;
16189;SDS011;41754;51.498;7.540;2023-02-28T00:41:12;8.37;;;3.00;;
16189;SDS011;41754;51.498;7.540;2023-02-28T00:43:40;5.67;;;3.00;;
16189;SDS011;41754;51.498;7.540;2023-02-28T00:46:10;5.23;;;3.20;;
16189;SDS011;41754;51.498;7.540;2023-02-28T00:48:39;4.43;;;3.27;;
16189;SDS011;41754;51.498;7.540;2023-02-28T00:51:07;3.53;;;3.07;;
16189;SDS011;41754;51.498;7.540;2023-02-28T00:53:35;4.07;;;3.10;;
16189;SDS011;41754;51.498;7.540;2023-02-28T00:56:03;7.23;;;3.57;;
16189;SDS011;41754;51.498;7.540;2023-02-28T00:58:31;6.03;;;3.57;;
16189;SDS011;41754;51.498;7.540;2023-02-28T01:00:59;4.00;;;3.00;;
16189;SDS011;41754;51.498;7.540;2023-02-28T01:03:27;4.40;;;3.03;;
16189;SDS011;41754;51.498;7.540;2023-02-28T01:05:57;5.63;;;3.20;;
16189;SDS011;41754;51.498;7.540;2023-02-28T01:08:25;5.87;;;3.60;;
16189;SDS011;41754;51.498;7.540;2023-02-28T01:10:53;3.70;;;3.23;;
16189;SDS011;41754;51.498;7.540;2023-02-28T01:13:21;7.20;;;3.60;;
16189;SDS011;41754;51.498;7.540;2023-02-28T01:15:50;5.30;;;3.27;;
16189;SDS011;41754;51.498;7.540;2023-02-28T01:18:20;5.60;;;3.53;;
16189;SDS011;41754;51.498;7.540;2023-02-28T01:20:49;6.93;;;3.50;;
16189;SDS011;41754;51.498;7.540;2023-02-28T01:23:19;6.83;;;3.47;;
16189;SDS011;41754;51.498;7.540;2023-02-28T01:25:48;3.43;;;2.70;;
16189;SDS011;41754;51.498;7.540;2023-02-28T01:28:16;5.33;;;3.47;;
16189;SDS011;41754;51.498;7.540;2023-02-28T01:30:47;4.63;;;3.30;;
16189;SDS011;41754;51.498;7.540;2023-02-28T01:33:15;5.07;;;3.03;;
16189;SDS011;41754;51.498;7.540;2023-02-28T01:35:43;5.47;;;3.00;;
16189;SDS011;41754;51.498;7.540;2023-02-28T01:38:11;4.53;;;3.30;;
16189;SDS011;41754;51.498;7.540;2023-02-28T01:40:50;6.47;;;3.40;;
16189;SDS011;41754;51.498;7.540;2023-02-28T01:43:20;4.53;;;3.10;;
16189;SDS011;41754;51.498;7.540;2023-02-28T01:45:50;5.87;;;3.23;;
16189;SDS011;41754;51.498;7.540;2023-02-28T01:48:18;5.77;;;3.50;;
16189;SDS011;41754;51.498;7.540;2023-02-28T01:50:48;5.57;;;3.10;;
16189;SDS011;41754;51.498;7.540;2023-02-28T01:53:19;5.07;;;3.40;;
16189;SDS011;41754;51.498;7.540;2023-02-28T01:55:59;5.27;;;3.20;;
16189;SDS011;41754;51.498;7.540;2023-02-28T01:58:27;5.87;;;3.23;;
16189;SDS011;41754;51.498;7.540;2023-02-28T02:00:55;4.30;;;3.10;;
16189;SDS011;41754;51.498;7.540;2023-02-28T02:03:25;4.23;;;3.37;;
16189;SDS011;41754;51.498;7.540;2023-02-28T02:05:53;5.27;;;3.83;;
16189;SDS011;41754;51.498;7.540;2023-02-28T02:08:21;4.30;;;3.27;;
16189;SDS011;41754;51.498;7.540;2023-02-28T02:10:51;4.33;;;3.40;;
16189;SDS011;41754;51.498;7.540;2023-02-28T02:13:29;4.13;;;3.23;;
16189;SDS011;41754;51.498;7.540;2023-02-28T02:16:12;6.43;;;3.60;;
16189;SDS011;41754;51.498;7.540;2023-02-28T02:18:52;5.67;;;3.53;;
16189;SDS011;41754;51.498;7.540;2023-02-28T02:24:48;5.50;;;3.60;;
16189;SDS011;41754;51.498;7.540;2023-02-28T02:27:28;7.17;;;4.10;;
16189;SDS011;41754;51.498;7.540;2023-02-28T02:36:08;5.33;;;3.67;;
16189;SDS011;41754;51.498;7.540;2023-02-28T02:38:42;4.50;;;3.73;;
16189;SDS011;41754;51.498;7.540;2023-02-28T02:41:17;4.23;;;3.40;;
16189;SDS011;41754;51.498;7.540;2023-02-28T02:43:51;6.60;;;3.80;;
16189;SDS011;41754;51.498;7.540;2023-02-28T02:46:28;5.47;;;3.77;;
16189;SDS011;41754;51.498;7.540;2023-02-28T02:49:00;8.13;;;4.07;;
16189;SDS011;41754;51.498;7.540;2023-02-28T02:51:32;6.50;;;4.13;;
16189;SDS011;41754;51.498;7.540;2023-02-28T02:54:02;5.23;;;4.20;;
16189;SDS011;41754;51.498;7.540;2023-02-28T02:56:34;5.50;;;3.50;;
16189;SDS011;41754;51.498;7.540;2023-02-28T02:59:07;4.57;;;3.67;;
16189;SDS011;41754;51.498;7.540;2023-02-28T03:01:39;5.93;;;3.93;;
16189;SDS011;41754;51.498;7.540;2023-02-28T03:04:10;6.30;;;3.77;;
16189;SDS011;41754;51.498;7.540;2023-02-28T03:06:42;4.80;;;3.60;;
16189;SDS011;41754;51.498;7.540;2023-02-28T03:09:10;7.13;;;4.33;;
16189;SDS011;41754;51.498;7.540;2023-02-28T03:11:38;7.33;;;4.33;;
16189;SDS011;41754;51.498;7.540;2023-02-28T03:14:13;5.30;;;3.50;;
16189;SDS011;41754;51.498;7.540;2023-02-28T03:16:55;5.57;;;4.03;;
16189;SDS011;41754;51.498;7.540;2023-02-28T03:19:45;5.90;;;4.33;;
16189;SDS011;41754;51.498;7.540;2023-02-28T03:22:35;6.13;;;4.13;;
16189;SDS011;41754;51.498;7.540;2023-02-28T03:25:20;5.87;;;4.13;;
16189;SDS011;41754;51.498;7.540;2023-02-28T03:27:58;5.33;;;3.87;;
16189;SDS011;41754;51.498;7.540;2023-02-28T03:30:33;6.50;;;3.50;;
16189;SDS011;41754;51.498;7.540;2023-02-28T03:33:08;5.37;;;3.73;;
16189;SDS011;41754;51.498;7.540;2023-02-28T03:35:39;4.53;;;3.40;;
16189;SDS011;41754;51.498;7.540;2023-02-28T03:38:12;4.63;;;3.70;;
16189;SDS011;41754;51.498;7.540;2023-02-28T03:40:46;7.97;;;4.33;;
16189;SDS011;41754;51.498;7.540;2023-02-28T03:43:18;5.57;;;3.97;;
16189;SDS011;41754;51.498;7.540;2023-02-28T03:45:50;8.37;;;4.10;;
16189;SDS011;41754;51.498;7.540;2023-02-28T03:48:20;6.23;;;4.50;;
16189;SDS011;41754;51.498;7.540;2023-02-28T03:50:52;4.53;;;4.00;;
16189;SDS011;41754;51.498;7.540;2023-02-28T03:53:25;8.17;;;5.00;;
16189;SDS011;41754;51.498;7.540;2023-02-28T03:55:56;7.13;;;4.87;;
16189;SDS011;41754;51.498;7.540;2023-02-28T03:58:29;7.37;;;4.57;;
16189;SDS011;41754;51.498;7.540;2023-02-28T04:01:05;6.13;;;4.10;;
16189;SDS011;41754;51.498;7.540;2023-02-28T04:03:36;7.17;;;4.20;;
16189;SDS011;41754;51.498;7.540;2023-02-28T04:06:05;5.37;;;3.70;;
16189;SDS011;41754;51.498;7.540;2023-02-28T04:08:36;7.07;;;4.60;;
16189;SDS011;41754;51.498;7.540;2023-02-28T04:11:05;5.27;;;3.80;;
16189;SDS011;41754;51.498;7.540;2023-02-28T04:13:42;7.50;;;4.17;;
16189;SDS011;41754;51.498;7.540;2023-02-28T04:16:12;7.73;;;3.83;;
16189;SDS011;41754;51.498;7.540;2023-02-28T04:18:59;6.10;;;3.80;;
16189;SDS011;41754;51.498;7.540;2023-02-28T04:21:29;5.73;;;3.67;;
16189;SDS011;41754;51.498;7.540;2023-02-28T04:23:59;6.70;;;4.37;;
16189;SDS011;41754;51.498;7.540;2023-02-28T04:26:28;3.80;;;3.40;;
16189;SDS011;41754;51.498;7.540;2023-02-28T04:28:57;5.40;;;3.50;;
16189;SDS011;41754;51.498;7.540;2023-02-28T04:31:25;6.70;;;4.17;;
16189;SDS011;41754;51.498;7.540;2023-02-28T04:33:54;7.70;;;4.10;;
16189;SDS011;41754;51.498;7.540;2023-02-28T04:36:22;5.63;;;3.70;;
16189;SDS011;41754;51.498;7.540;2023-02-28T04:38:50;4.40;;;3.70;;
16189;SDS011;41754;51.498;7.540;2023-02-28T04:41:20;4.57;;;3.60;;
16189;SDS011;41754;51.498;7.540;2023-02-28T04:43:50;6.17;;;4.10;;
16189;SDS011;41754;51.498;7.540;2023-02-28T04:46:18;4.03;;;3.63;;
16189;SDS011;41754;51.498;7.540;2023-02-28T04:48:47;3.97;;;3.50;;
16189;SDS011;41754;51.498;7.540;2023-02-28T04:51:15;6.40;;;3.60;;
16189;SDS011;41754;51.498;7.540;2023-02-28T04:53:44;4.50;;;4.03;;
16189;SDS011;41754;51.498;7.540;2023-02-28T04:56:13;6.63;;;4.27;;
16189;SDS011;41754;51.498;7.540;2023-02-28T04:58:44;6.27;;;4.30;;
16189;SDS011;41754;51.498;7.540;2023-02-28T05:01:16;5.33;;;3.63;;
16189;SDS011;41754;51.498;7.540;2023-02-28T05:03:47;5.20;;;4.07;;
16189;SDS011;41754;51.498;7.540;2023-02-28T05:06:15;7.33;;;4.20;;
16189;SDS011;41754;51.498;7.540;2023-02-28T05:08:44;9.13;;;4.07;;
16189;SDS011;41754;51.498;7.540;2023-02-28T05:11:13;7.50;;;4.40;;
16189;SDS011;41754;51.498;7.540;2023-02-28T05:13:45;6.43;;;4.13;;
16189;SDS011;41754;51.498;7.540;2023-02-28T05:16:14;6.47;;;4.43;;
16189;SDS011;41754;51.498;7.540;2023-02-28T05:18:42;8.37;;;4.93;;
16189;SDS011;41754;51.498;7.540;2023-02-28T05:21:19;7.90;;;5.00;;
16189;SDS011;41754;51.498;7.540;2023-02-28T05:23:51;7.47;;;4.50;;
16189;SDS011;41754;51.498;7.540;2023-02-28T05:26:19;7.70;;;4.67;;
16189;SDS011;41754;51.498;7.540;2023-02-28T05:28:49;6.33;;;4.83;;
16189;SDS011;41754;51.498;7.540;2023-02-28T05:31:17;7.70;;;5.17;;
16189;SDS011;41754;51.498;7.540;2023-02-28T05:33:45;5.97;;;5.10;;
16189;SDS011;41754;51.498;7.540;2023-02-28T05:36:12;8.83;;;5.53;;
16189;SDS011;41754;51.498;7.540;2023-02-28T05:38:40;10.33;;;5.23;;
16189;SDS011;41754;51.498;7.540;2023-02-28T05:41:09;6.77;;;5.33;;
16189;SDS011;41754;51.498;7.540;2023-02-28T05:43:37;11.27;;;5.63;;
16189;SDS011;41754;51.498;7.540;2023-02-28T05:46:07;8.93;;;5.87;;
16189;SDS011;41754;51.498;7.540;2023-02-28T05:48:37;8.27;;;6.00;;
16189;SDS011;41754;51.498;7.540;2023-02-28T05:51:06;8.10;;;6.47;;
16189;SDS011;41754;51.498;7.540;2023-02-28T05:53:35;8.87;;;6.13;;
16189;SDS011;41754;51.498;7.540;2023-02-28T05:56:03;8.53;;;6.13;;
16189;SDS011;41754;51.498;7.540;2023-02-28T05:58:31;8.07;;;6.03;;
16189;SDS011;41754;51.498;7.540;2023-02-28T06:01:18;8.87;;;5.70;;
16189;SDS011;41754;51.498;7.540;2023-02-28T06:03:50;9.70;;;6.30;;
16189;SDS011;41754;51.498;7.540;2023-02-28T06:06:18;10.30;;;6.57;;
16189;SDS011;41754;51.498;7.540;2023-02-28T06:08:46;8.97;;;6.30;;
16189;SDS011;41754;51.498;7.540;2023-02-28T06:11:14;9.93;;;6.77;;
16189;SDS011;41754;51.498;7.540;2023-02-28T06:13:42;8.77;;;6.50;;
16189;SDS011;41754;51.498;7.540;2023-02-28T06:16:10;8.37;;;6.43;;
16189;SDS011;41754;51.498;7.540;2023-02-28T06:18:40;10.40;;;7.00;;
16189;SDS011;41754;51.498;7.540;2023-02-28T06:21:08;9.10;;;6.40;;
16189;SDS011;41754;51.498;7.540;2023-02-28T06:23:35;9.20;;;6.30;;
16189;SDS011;41754;51.498;7.540;2023-02-28T06:26:03;7.10;;;6.07;;
16189;SDS011;41754;51.498;7.540;2023-02-28T06:28:32;8.60;;;6.50;;
16189;SDS011;41754;51.498;7.540;2023-02-28T06:31:04;9.30;;;5.97;;
16189;SDS011;41754;51.498;7.540;2023-02-28T06:33:34;8.27;;;5.90;;
16189;SDS011;41754;51.498;7.540;2023-02-28T06:36:03;12.40;;;6.40;;
16189;SDS011;41754;51.498;7.540;2023-02-28T06:38:33;10.07;;;6.43;;
16189;SDS011;41754;51.498;7.540;2023-02-28T06:41:01;9.53;;;6.20;;
16189;SDS011;41754;51.498;7.540;2023-02-28T06:43:29;7.87;;;6.23;;
16189;SDS011;41754;51.498;7.540;2023-02-28T06:46:00;7.70;;;5.37;;
16189;SDS011;41754;51.498;7.540;2023-02-28T06:48:29;6.90;;;5.67;;
16189;SDS011;41754;51.498;7.540;2023-02-28T06:51:05;9.77;;;6.50;;
16189;SDS011;41754;51.498;7.540;2023-02-28T06:53:35;9.43;;;6.43;;
16189;SDS011;41754;51.498;7.540;2023-02-28T06:56:03;10.63;;;6.20;;
16189;SDS011;41754;51.498;7.540;2023-02-28T06:58:33;11.33;;;6.53;;
16189;SDS011;41754;51.498;7.540;2023-02-28T07:01:01;9.33;;;6.37;;
16189;SDS011;41754;51.498;7.540;2023-02-28T07:03:30;8.60;;;5.50;;
16189;SDS011;41754;51.498;7.540;2023-02-28T07:05:59;7.60;;;5.93;;
16189;SDS011;41754;51.498;7.540;2023-02-28T07:08:29;10.43;;;5.33;;
16189;SDS011;41754;51.498;7.540;2023-02-28T07:10:59;7.07;;;5.13;;
16189;SDS011;41754;51.498;7.540;2023-02-28T07:13:26;9.17;;;5.13;;
16189;SDS011;41754;51.498;7.540;2023-02-28T07:15:55;10.60;;;5.90;;
16189;SDS011;41754;51.498;7.540;2023-02-28T07:18:23;8.93;;;6.30;;
16189;SDS011;41754;51.498;7.540;2023-02-28T07:20:51;11.47;;;6.03;;
16189;SDS011;41754;51.498;7.540;2023-02-28T07:23:20;13.47;;;6.00;;
16189;SDS011;41754;51.498;7.540;2023-02-28T07:25:50;13.63;;;8.90;;
16189;SDS011;41754;51.498;7.540;2023-02-28T07:28:18;18.87;;;10.20;;
16189;SDS011;41754;51.498;7.540;2023-02-28T07:30:46;25.77;;;11.93;;
16189;SDS011;41754;51.498;7.540;2023-02-28T07:33:14;30.20;;;13.87;;
16189;SDS011;41754;51.498;7.540;2023-02-28T07:35:42;14.07;;;8.70;;
16189;SDS011;41754;51.498;7.540;2023-02-28T07:38:10;11.37;;;6.47;;
16189;SDS011;41754;51.498;7.540;2023-02-28T07:40:39;11.07;;;6.80;;
16189;SDS011;41754;51.498;7.540;2023-02-28T07:43:09;23.93;;;10.67;;
16189;SDS011;41754;51.498;7.540;2023-02-28T07:45:36;24.47;;;10.07;;
16189;SDS011;41754;51.498;7.540;2023-02-28T07:48:04;20.23;;;10.10;;
16189;SDS011;41754;51.498;7.540;2023-02-28T07:50:32;16.67;;;9.37;;
16189;SDS011;41754;51.498;7.540;2023-02-28T07:53:00;18.27;;;9.10;;
16189;SDS011;41754;51.498;7.540;2023-02-28T07:55:28;16.80;;;8.20;;
16189;SDS011;41754;51.498;7.540;2023-02-28T07:57:56;14.50;;;8.90;;
16189;SDS011;41754;51.498;7.540;2023-02-28T08:00:26;12.27;;;8.87;;
16189;SDS011;41754;51.498;7.540;2023-02-28T08:02:55;13.57;;;7.97;;
16189;SDS011;41754;51.498;7.540;2023-02-28T08:05:23;12.40;;;7.80;;
16189;SDS011;41754;51.498;7.540;2023-02-28T08:07:50;9.83;;;7.47;;
16189;SDS011;41754;51.498;7.540;2023-02-28T08:10:19;8.13;;;5.50;;
16189;SDS011;41754;51.498;7.540;2023-02-28T08:12:47;9.33;;;5.93;;
16189;SDS011;41754;51.498;7.540;2023-02-28T08:15:15;9.33;;;7.23;;
16189;SDS011;41754;51.498;7.540;2023-02-28T08:17:44;13.50;;;7.70;;
16189;SDS011;41754;51.498;7.540;2023-02-28T08:20:12;11.23;;;7.10;;
16189;SDS011;41754;51.498;7.540;2023-02-28T08:22:40;12.53;;;7.87;;
16189;SDS011;41754;51.498;7.540;2023-02-28T08:25:11;10.17;;;7.33;;
16189;SDS011;41754;51.498;7.540;2023-02-28T08:27:39;9.37;;;6.43;;
16189;SDS011;41754;51.498;7.540;2023-02-28T08:30:07;7.70;;;6.07;;
16189;SDS011;41754;51.498;7.540;2023-02-28T08:32:37;10.13;;;5.73;;
16189;SDS011;41754;51.498;7.540;2023-02-28T08:35:07;7.13;;;5.40;;
16189;SDS011;41754;51.498;7.540;2023-02-28T08:37:36;5.67;;;4.20;;
16189;SDS011;41754;51.498;7.540;2023-02-28T08:40:05;4.03;;;3.30;;
16189;SDS011;41754;51.498;7.540;2023-02-28T08:42:34;3.60;;;3.20;;
16189;SDS011;41754;51.498;7.540;2023-02-28T08:45:02;5.30;;;3.70;;
16189;SDS011;41754;51.498;7.540;2023-02-28T08:47:30;5.30;;;3.23;;
16189;SDS011;41754;51.498;7.540;2023-02-28T08:49:58;4.90;;;3.60;;
16189;SDS011;41754;51.498;7.540;2023-02-28T08:52:27;6.10;;;3.30;;
16189;SDS011;41754;51.498;7.540;2023-02-28T08:54:55;6.73;;;3.90;;
16189;SDS011;41754;51.498;7.540;2023-02-28T08:57:23;3.90;;;3.27;;
16189;SDS011;41754;51.498;7.540;2023-02-28T08:59:52;6.70;;;3.40;;
16189;SDS011;41754;51.498;7.540;2023-02-28T09:02:20;6.67;;;3.67;;
16189;SDS011;41754;51.498;7.540;2023-02-28T09:04:48;5.23;;;3.13;;
16189;SDS011;41754;51.498;7.540;2023-02-28T09:07:16;6.00;;;3.30;;
16189;SDS011;41754;51.498;7.540;2023-02-28T09:09:45;3.67;;;2.70;;
16189;SDS011;41754;51.498;7.540;2023-02-28T09:12:21;2.87;;;2.50;;
16189;SDS011;41754;51.498;7.540;2023-02-28T09:14:49;4.03;;;2.60;;
16189;SDS011;41754;51.498;7.540;2023-02-28T09:17:17;3.37;;;2.67;;
16189;SDS011;41754;51.498;7.540;2023-02-28T09:19:45;6.03;;;2.77;;
16189;SDS011;41754;51.498;7.540;2023-02-28T09:22:14;4.37;;;2.43;;
16189;SDS011;41754;51.498;7.540;2023-02-28T09:24:43;5.73;;;2.67;;
16189;SDS011;41754;51.498;7.540;2023-02-28T09:27:12;3.13;;;2.47;;
16189;SDS011;41754;51.498;7.540;2023-02-28T09:29:40;3.03;;;2.13;;
16189;SDS011;41754;51.498;7.540;2023-02-28T09:32:07;4.73;;;2.50;;
16189;SDS011;41754;51.498;7.540;2023-02-28T09:34:35;4.07;;;2.37;;
16189;SDS011;41754;51.498;7.540;2023-02-28T09:37:04;3.60;;;2.10;;
16189;SDS011;41754;51.498;7.540;2023-02-28T09:39:32;3.03;;;2.13;;
16189;SDS011;41754;51.498;7.540;2023-02-28T09:42:01;3.40;;;2.37;;
16189;SDS011;41754;51.498;7.540;2023-02-28T09:44:33;3.10;;;2.03;;
16189;SDS011;41754;51.498;7.540;2023-02-28T09:47:05;2.13;;;1.93;;
16189;SDS011;41754;51.498;7.540;2023-02-28T09:49:39;4.30;;;2.13;;
16189;SDS011;41754;51.498;7.540;2023-02-28T09:52:10;2.90;;;2.00;;
16189;SDS011;41754;51.498;7.540;2023-02-28T09:54:41;4.43;;;2.23;;
16189;SDS011;41754;51.498;7.540;2023-02-28T09:57:13;3.47;;;2.27;;
16189;SDS011;41754;51.498;7.540;2023-02-28T09:59:58;3.70;;;2.60;;
16189;SDS011;41754;51.498;7.540;2023-02-28T10:02:41;4.23;;;2.00;;
16189;SDS011;41754;51.498;7.540;2023-02-28T10:05:17;2.80;;;2.20;;
16189;SDS011;41754;51.498;7.540;2023-02-28T10:07:50;3.30;;;2.57;;
16189;SDS011;41754;51.498;7.540;2023-02-28T10:10:29;3.77;;;2.40;;
16189;SDS011;41754;51.498;7.540;2023-02-28T10:13:04;4.10;;;2.13;;
16189;SDS011;41754;51.498;7.540;2023-02-28T10:15:39;3.53;;;2.33;;
16189;SDS011;41754;51.498;7.540;2023-02-28T10:18:11;2.20;;;1.87;;
16189;SDS011;41754;51.498;7.540;2023-02-28T10:20:42;3.00;;;1.50;;
16189;SDS011;41754;51.498;7.540;2023-02-28T10:23:13;3.73;;;1.50;;
16189;SDS011;41754;51.498;7.540;2023-02-28T10:25:48;3.40;;;1.50;;
16189;SDS011;41754;51.498;7.540;2023-02-28T10:28:24;4.23;;;1.80;;
16189;SDS011;41754;51.498;7.540;2023-02-28T10:30:53;2.43;;;1.60;;
16189;SDS011;41754;51.498;7.540;2023-02-28T10:33:23;3.70;;;1.97;;
16189;SDS011;41754;51.498;7.540;2023-02-28T10:35:53;2.30;;;1.50;;
16189;SDS011;41754;51.498;7.540;2023-02-28T10:38:21;3.20;;;1.80;;
16189;SDS011;41754;51.498;7.540;2023-02-28T10:40:51;3.00;;;1.57;;
16189;SDS011;41754;51.498;7.540;2023-02-28T10:43:31;2.77;;;1.60;;
16189;SDS011;41754;51.498;7.540;2023-02-28T10:46:00;2.87;;;1.70;;
16189;SDS011;41754;51.498;7.540;2023-02-28T10:48:35;2.00;;;1.47;;
16189;SDS011;41754;51.498;7.540;2023-02-28T10:51:05;2.27;;;1.60;;
16189;SDS011;41754;51.498;7.540;2023-02-28T10:53:37;1.83;;;1.47;;
16189;SDS011;41754;51.498;7.540;2023-02-28T10:56:26;2.20;;;1.50;;
16189;SDS011;41754;51.498;7.540;2023-02-28T10:58:56;3.23;;;1.40;;
16189;SDS011;41754;51.498;7.540;2023-02-28T11:01:34;1.87;;;1.57;;
16189;SDS011;41754;51.498;7.540;2023-02-28T11:04:03;2.50;;;1.50;;
16189;SDS011;41754;51.498;7.540;2023-02-28T11:06:44;2.33;;;1.80;;
16189;SDS011;41754;51.498;7.540;2023-02-28T11:09:16;2.53;;;1.73;;
16189;SDS011;41754;51.498;7.540;2023-02-28T11:11:50;2.13;;;1.50;;
16189;SDS011;41754;51.498;7.540;2023-02-28T11:14:21;1.77;;;1.67;;
16189;SDS011;41754;51.498;7.540;2023-02-28T11:16:51;2.55;;;1.80;;
16189;SDS011;41754;51.498;7.540;2023-02-28T11:19:22;6.15;;;1.73;;
16189;SDS011;41754;51.498;7.540;2023-02-28T11:21:53;2.83;;;1.70;;
16189;SDS011;41754;51.498;7.540;2023-02-28T11:24:26;1.90;;;1.55;;
16189;SDS011;41754;51.498;7.540;2023-02-28T11:26:55;2.25;;;1.60;;
16189;SDS011;41754;51.498;7.540;2023-02-28T11:29:25;2.55;;;1.63;;
16189;SDS011;41754;51.498;7.540;2023-02-28T11:32:00;2.42;;;1.75;;
16189;SDS011;41754;51.498;7.540;2023-02-28T11:34:31;2.17;;;1.50;;
16189;SDS011;41754;51.498;7.540;2023-02-28T11:36:59;3.65;;;1.77;;
16189;SDS011;41754;51.498;7.540;2023-02-28T11:39:31;4.60;;;1.98;;
16189;SDS011;41754;51.498;7.540;2023-02-28T11:42:06;5.07;;;3.53;;
16189;SDS011;41754;51.498;7.540;2023-02-28T11:44:56;2.67;;;1.90;;
16189;SDS011;41754;51.498;7.540;2023-02-28T11:47:38;2.92;;;1.90;;
16189;SDS011;41754;51.498;7.540;2023-02-28T11:53:05;2.28;;;1.63;;
16189;SDS011;41754;51.498;7.540;2023-02-28T11:55:42;2.10;;;1.90;;
16189;SDS011;41754;51.498;7.540;2023-02-28T11:58:23;1.77;;;1.50;;
16189;SDS011;41754;51.498;7.540;2023-02-28T12:01:09;2.40;;;1.80;;
16189;SDS011;41754;51.498;7.540;2023-02-28T12:03:48;2.97;;;1.75;;
16189;SDS011;41754;51.498;7.540;2023-02-28T12:06:30;1.67;;;1.52;;
16189;SDS011;41754;51.498;7.540;2023-02-28T12:09:11;1.75;;;1.60;;
16189;SDS011;41754;51.498;7.540;2023-02-28T12:11:55;1.90;;;1.70;;
16189;SDS011;41754;51.498;7.540;2023-02-28T12:14:35;2.08;;;1.75;;
16189;SDS011;41754;51.498;7.540;2023-02-28T12:17:30;3.17;;;1.92;;
16189;SDS011;41754;51.498;7.540;2023-02-28T12:20:10;2.30;;;1.83;;
16189;SDS011;41754;51.498;7.540;2023-02-28T12:22:47;2.08;;;1.73;;
16189;SDS011;41754;51.498;7.540;2023-02-28T12:28:13;2.17;;;1.92;;
16189;SDS011;41754;51.498;7.540;2023-02-28T12:30:46;2.40;;;2.10;;
16189;SDS011;41754;51.498;7.540;2023-02-28T12:33:23;2.67;;;1.88;;
16189;SDS011;41754;51.498;7.540;2023-02-28T12:35:57;3.55;;;2.17;;
16189;SDS011;41754;51.498;7.540;2023-02-28T12:38:27;2.00;;;1.70;;
16189;SDS011;41754;51.498;7.540;2023-02-28T12:41:00;4.65;;;2.10;;
16189;SDS011;41754;51.498;7.540;2023-02-28T12:43:30;2.63;;;2.35;;
16189;SDS011;41754;51.498;7.540;2023-02-28T12:46:04;2.20;;;2.00;;
16189;SDS011;41754;51.498;7.540;2023-02-28T12:48:39;2.67;;;2.30;;
16189;SDS011;41754;51.498;7.540;2023-02-28T12:51:10;3.22;;;2.10;;
16189;SDS011;41754;51.498;7.540;2023-02-28T12:53:43;2.25;;;1.80;;
16189;SDS011;41754;51.498;7.540;2023-02-28T12:56:23;2.90;;;2.05;;
16189;SDS011;41754;51.498;7.540;2023-02-28T12:59:01;3.90;;;2.78;;
16189;SDS011;41754;51.498;7.540;2023-02-28T13:01:42;2.35;;;1.75;;
16189;SDS011;41754;51.498;7.540;2023-02-28T13:04:28;4.30;;;2.17;;
16189;SDS011;41754;51.498;7.540;2023-02-28T13:07:13;3.72;;;2.22;;
16189;SDS011;41754;51.498;7.540;2023-02-28T13:09:58;2.65;;;2.20;;
16189;SDS011;41754;51.498;7.540;2023-02-28T13:12:29;2.17;;;1.98;;
16189;SDS011;41754;51.498;7.540;2023-02-28T13:15:02;2.65;;;1.70;;
16189;SDS011;41754;51.498;7.540;2023-02-28T13:17:38;2.65;;;2.00;;
16189;SDS011;41754;51.498;7.540;2023-02-28T13:20:15;2.17;;;1.83;;
16189;SDS011;41754;51.498;7.540;2023-02-28T13:22:46;2.35;;;2.03;;
16189;SDS011;41754;51.498;7.540;2023-02-28T13:34:40;3.08;;;2.03;;
16189;SDS011;41754;51.498;7.540;2023-02-28T13:37:35;5.07;;;2.38;;
16189;SDS011;41754;51.498;7.540;2023-02-28T13:43:03;2.50;;;1.70;;
16189;SDS011;41754;51.498;7.540;2023-02-28T13:45:35;2.38;;;2.00;;
16189;SDS011;41754;51.498;7.540;2023-02-28T13:48:05;2.20;;;2.00;;
16189;SDS011;41754;51.498;7.540;2023-02-28T13:50:45;3.22;;;1.80;;
16189;SDS011;41754;51.498;7.540;2023-02-28T13:53:28;2.50;;;2.30;;
16189;SDS011;41754;51.498;7.540;2023-02-28T13:59:13;2.50;;;2.30;;
16189;SDS011;41754;51.498;7.540;2023-02-28T14:01:52;3.08;;;1.88;;
16189;SDS011;41754;51.498;7.540;2023-02-28T14:04:39;4.55;;;2.78;;
16189;SDS011;41754;51.498;7.540;2023-02-28T14:07:21;2.40;;;2.20;;
16189;SDS011;41754;51.498;7.540;2023-02-28T14:09:57;3.40;;;2.47;;
16189;SDS011;41754;51.498;7.540;2023-02-28T14:15:40;3.70;;;2.90;;
16189;SDS011;41754;51.498;7.540;2023-02-28T14:21:03;3.38;;;2.35;;
16189;SDS011;41754;51.498;7.540;2023-02-28T14:27:05;3.38;;;2.72;;
16189;SDS011;41754;51.498;7.540;2023-02-28T14:29:52;2.58;;;2.38;;
16189;SDS011;41754;51.498;7.540;2023-02-28T14:32:33;2.95;;;2.40;;
16189;SDS011;41754;51.498;7.540;2023-02-28T14:35:13;2.80;;;2.60;;
16189;SDS011;41754;51.498;7.540;2023-02-28T14:37:49;3.05;;;2.15;;
16189;SDS011;41754;51.498;7.540;2023-02-28T14:40:19;2.42;;;2.22;;
16189;SDS011;41754;51.498;7.540;2023-02-28T14:42:56;3.15;;;2.40;;
16189;SDS011;41754;51.498;7.540;2023-02-28T14:45:26;2.58;;;2.38;;
16189;SDS011;41754;51.498;7.540;2023-02-28T14:47:57;2.75;;;2.28;;
16189;SDS011;41754;51.498;7.540;2023-02-28T14:50:27;2.55;;;2.10;;
16189;SDS011;41754;51.498;7.540;2023-02-28T14:52:58;7.20;;;5.78;;
16189;SDS011;41754;51.498;7.540;2023-02-28T14:55:26;4.80;;;2.50;;
16189;SDS011;41754;51.498;7.540;2023-02-28T14:57:59;2.55;;;2.40;;
16189;SDS011;41754;51.498;7.540;2023-02-28T15:00:29;4.05;;;2.28;;
16189;SDS011;41754;51.498;7.540;2023-02-28T15:02:59;2.50;;;2.25;;
16189;SDS011;41754;51.498;7.540;2023-02-28T15:05:28;2.70;;;2.50;;
16189;SDS011;41754;51.498;7.540;2023-02-28T15:08:02;3.25;;;2.40;;
16189;SDS011;41754;51.498;7.540;2023-02-28T15:10:38;4.38;;;3.95;;
16189;SDS011;41754;51.498;7.540;2023-02-28T15:13:10;2.55;;;2.35;;
16189;SDS011;41754;51.498;7.540;2023-02-28T15:15:42;2.78;;;2.55;;
16189;SDS011;41754;51.498;7.540;2023-02-28T15:18:30;2.78;;;2.55;;
16189;SDS011;41754;51.498;7.540;2023-02-28T15:21:07;2.90;;;2.60;;
16189;SDS011;41754;51.498;7.540;2023-02-28T15:23:39;2.72;;;2.50;;
16189;SDS011;41754;51.498;7.540;2023-02-28T15:26:10;3.40;;;2.60;;
16189;SDS011;41754;51.498;7.540;2023-02-28T15:28:43;2.45;;;2.00;;
16189;SDS011;41754;51.498;7.540;2023-02-28T15:31:19;3.22;;;2.38;;
16189;SDS011;41754;51.498;7.540;2023-02-28T15:33:53;2.40;;;2.20;;
16189;SDS011;41754;51.498;7.540;2023-02-28T15:36:24;2.78;;;2.45;;
16189;SDS011;41754;51.498;7.540;2023-02-28T15:38:57;2.85;;;2.50;;
16189;SDS011;41754;51.498;7.540;2023-02-28T15:41:41;3.90;;;2.30;;
16189;SDS011;41754;51.498;7.540;2023-02-28T15:44:17;4.15;;;2.40;;
16189;SDS011;41754;51.498;7.540;2023-02-28T15:46:54;2.90;;;2.22;;
16189;SDS011;41754;51.498;7.540;2023-02-28T15:49:28;3.08;;;2.42;;
16189;SDS011;41754;51.498;7.540;2023-02-28T15:52:11;2.58;;;2.38;;
16189;SDS011;41754;51.498;7.540;2023-02-28T15:54:41;2.33;;;2.10;;